createdAt,value
2023-03-17T00:01:51.121Z,2.57
2023-03-17T00:04:19.484Z,2.70
2023-03-17T00:06:48.866Z,2.50
2023-03-17T00:09:17.751Z,2.50
2023-03-17T00:11:47.641Z,2.37
2023-03-17T00:14:14.594Z,2.43
2023-03-17T00:16:43.954Z,2.20
2023-03-17T00:19:20.006Z,2.90
2023-03-17T00:21:47.060Z,2.43
2023-03-17T00:24:15.229Z,2.30
2023-03-17T00:26:43.194Z,2.13
2023-03-17T00:29:13.198Z,2.60
2023-03-17T00:31:40.139Z,2.40
2023-03-17T00:34:11.444Z,2.80
2023-03-17T00:36:38.567Z,2.33
2023-03-17T00:39:17.372Z,2.38
2023-03-17T00:44:12.909Z,2.33
2023-03-17T00:46:42.812Z,2.17
2023-03-17T00:49:22.065Z,2.23
2023-03-17T00:51:51.991Z,2.33
2023-03-17T00:54:26.973Z,2.47
2023-03-17T00:56:53.714Z,2.93
2023-03-17T00:59:30.546Z,2.53
2023-03-17T01:01:57.563Z,2.40
2023-03-17T01:04:29.001Z,2.57
2023-03-17T01:06:55.715Z,2.50
2023-03-17T01:09:26.407Z,2.47
2023-03-17T01:11:55.910Z,2.23
2023-03-17T01:14:24.664Z,2.60
2023-03-17T01:16:53.019Z,2.33
2023-03-17T01:19:22.309Z,2.47
2023-03-17T01:21:48.974Z,2.70
2023-03-17T01:24:20.166Z,2.27
2023-03-17T01:26:46.916Z,2.70
2023-03-17T01:29:14.181Z,2.60
2023-03-17T01:31:41.162Z,2.37
2023-03-17T01:34:07.889Z,2.13
2023-03-17T01:36:35.616Z,2.43
2023-03-17T01:39:03.345Z,2.37
2023-03-17T01:41:34.616Z,2.57
2023-03-17T01:44:01.268Z,2.47
2023-03-17T01:46:34.021Z,2.33
2023-03-17T01:49:29.282Z,2.53
2023-03-17T01:52:06.509Z,2.50
2023-03-17T01:54:35.548Z,2.80
2023-03-17T01:57:15.090Z,2.40
2023-03-17T01:59:53.406Z,2.30
2023-03-17T02:02:30.874Z,2.33
2023-03-17T02:05:00.600Z,2.70
2023-03-17T02:07:28.113Z,2.57
2023-03-17T02:09:57.036Z,2.43
2023-03-17T02:12:25.130Z,2.40
2023-03-17T02:14:52.704Z,2.40
2023-03-17T02:17:22.068Z,2.40
2023-03-17T02:19:51.932Z,2.50
2023-03-17T02:22:21.873Z,2.23
2023-03-17T02:24:56.527Z,2.43
2023-03-17T02:27:31.189Z,2.37
2023-03-17T02:29:58.168Z,2.40
2023-03-17T02:32:27.226Z,2.50
2023-03-17T02:34:53.914Z,2.30
2023-03-17T02:37:23.608Z,2.37
2023-03-17T02:39:53.725Z,2.50
2023-03-17T02:42:20.960Z,1.90
2023-03-17T02:44:52.039Z,2.72
2023-03-17T02:47:19.100Z,2.13
2023-03-17T02:49:45.878Z,2.27
2023-03-17T02:52:13.151Z,2.33
2023-03-17T02:54:42.716Z,2.57
2023-03-17T02:57:12.063Z,2.27
2023-03-17T02:59:41.529Z,2.13
2023-03-17T03:02:08.528Z,2.47
2023-03-17T03:04:39.978Z,2.30
2023-03-17T03:07:06.726Z,2.07
2023-03-17T03:09:35.901Z,2.20
2023-03-17T03:12:03.303Z,2.10
2023-03-17T03:14:32.433Z,2.00
2023-03-17T03:16:59.584Z,2.20
2023-03-17T03:19:26.347Z,2.00
2023-03-17T03:21:52.983Z,1.80
2023-03-17T03:24:19.638Z,1.90
2023-03-17T03:26:48.873Z,1.98
2023-03-17T03:29:18.577Z,1.97
2023-03-17T03:31:45.410Z,2.10
2023-03-17T03:34:14.735Z,2.00
2023-03-17T03:36:41.443Z,2.30
2023-03-17T03:39:12.490Z,1.80
2023-03-17T03:41:41.236Z,2.07
2023-03-17T03:44:07.903Z,2.22
2023-03-17T03:46:34.586Z,2.10
2023-03-17T03:49:01.296Z,2.20
2023-03-17T03:51:27.942Z,1.70
2023-03-17T03:53:56.863Z,2.00
2023-03-17T03:56:23.568Z,1.80
2023-03-17T03:58:51.221Z,1.70
2023-03-17T04:01:18.084Z,2.00
2023-03-17T04:03:47.255Z,1.90
2023-03-17T04:06:14.289Z,1.80
2023-03-17T04:08:43.342Z,2.00
2023-03-17T04:11:10.023Z,1.80
2023-03-17T04:13:39.174Z,1.90
2023-03-17T04:16:06.231Z,1.80
2023-03-17T04:18:35.639Z,1.90
2023-03-17T04:21:04.626Z,1.70
2023-03-17T04:23:34.084Z,1.80
2023-03-17T04:26:00.912Z,2.00
2023-03-17T04:28:27.654Z,2.13
2023-03-17T04:30:56.771Z,1.70
2023-03-17T04:33:23.591Z,1.90
2023-03-17T04:35:50.272Z,1.80
2023-03-17T04:38:16.997Z,1.80
2023-03-17T04:40:46.220Z,2.10
2023-03-17T04:43:15.530Z,1.70
2023-03-17T04:45:42.407Z,1.37
2023-03-17T04:48:09.074Z,1.73
2023-03-17T04:50:35.826Z,1.87
2023-03-17T04:53:04.939Z,2.10
2023-03-17T04:55:31.610Z,1.57
2023-03-17T04:58:00.666Z,1.60
2023-03-17T05:00:33.685Z,1.80
2023-03-17T05:03:00.348Z,1.60
2023-03-17T05:05:29.418Z,1.70
2023-03-17T05:07:56.091Z,1.60
2023-03-17T05:10:22.738Z,1.65
2023-03-17T05:12:51.762Z,1.53
2023-03-17T05:15:21.590Z,1.60
2023-03-17T05:17:48.224Z,1.90
2023-03-17T05:20:15.569Z,1.60
2023-03-17T05:22:42.306Z,1.70
2023-03-17T05:25:11.583Z,1.67
2023-03-17T05:27:38.275Z,1.60
2023-03-17T05:30:08.290Z,1.80
2023-03-17T05:32:40.284Z,1.37
2023-03-17T05:35:07.528Z,1.80
2023-03-17T05:37:34.217Z,1.70
2023-03-17T05:40:01.039Z,1.83
2023-03-17T05:42:28.380Z,1.47
2023-03-17T05:44:55.105Z,1.60
2023-03-17T05:47:23.930Z,1.73
2023-03-17T05:49:50.784Z,1.50
2023-03-17T05:52:22.096Z,1.57
2023-03-17T05:54:49.101Z,1.90
2023-03-17T05:57:16.504Z,1.70
2023-03-17T05:59:43.154Z,1.60
2023-03-17T06:02:12.931Z,1.73
2023-03-17T06:04:44.741Z,1.80
2023-03-17T06:07:12.058Z,1.80
2023-03-17T06:09:39.171Z,1.37
2023-03-17T06:12:06.794Z,1.60
2023-03-17T06:14:36.166Z,1.40
2023-03-17T06:17:02.904Z,1.80
2023-03-17T06:19:29.668Z,1.77
2023-03-17T06:21:59.726Z,1.80
2023-03-17T06:24:28.780Z,1.70
2023-03-17T06:26:55.647Z,1.70
2023-03-17T06:29:22.683Z,1.63
2023-03-17T06:31:51.152Z,1.50
2023-03-17T06:34:19.058Z,1.50
2023-03-17T06:36:45.706Z,1.80
2023-03-17T06:39:13.142Z,1.90
2023-03-17T06:41:40.053Z,1.70
2023-03-17T06:44:07.253Z,1.70
2023-03-17T06:46:34.744Z,1.70
2023-03-17T06:49:03.211Z,1.93
2023-03-17T06:51:32.343Z,1.90
2023-03-17T06:53:59.027Z,1.73
2023-03-17T06:56:30.034Z,1.97
2023-03-17T06:58:57.552Z,2.03
2023-03-17T07:01:27.378Z,1.77
2023-03-17T07:03:56.471Z,2.20
2023-03-17T07:06:26.320Z,1.90
2023-03-17T07:08:56.619Z,2.27
2023-03-17T07:11:23.766Z,2.20
2023-03-17T07:13:56.316Z,2.17
2023-03-17T07:16:25.459Z,1.63
2023-03-17T07:18:52.215Z,2.43
2023-03-17T07:21:21.829Z,2.60
2023-03-17T07:23:48.502Z,2.30
2023-03-17T07:26:19.577Z,2.27
2023-03-17T07:28:46.694Z,2.20
2023-03-17T07:31:14.509Z,2.17
2023-03-17T07:33:42.057Z,2.50
2023-03-17T07:36:15.758Z,2.40
2023-03-17T07:38:43.214Z,2.97
2023-03-17T07:41:12.103Z,2.60
2023-03-17T07:43:38.809Z,2.90
2023-03-17T07:46:06.499Z,3.00
2023-03-17T07:48:37.938Z,3.30
2023-03-17T07:51:07.322Z,3.13
2023-03-17T07:53:36.551Z,3.03
2023-03-17T07:56:03.451Z,3.17
2023-03-17T07:58:32.657Z,3.03
2023-03-17T08:00:59.405Z,3.60
2023-03-17T08:03:26.056Z,3.00
2023-03-17T08:05:55.807Z,3.13
2023-03-17T08:08:28.205Z,3.55
2023-03-17T08:11:03.710Z,2.97
2023-03-17T08:13:35.941Z,3.30
2023-03-17T08:16:08.114Z,2.90
2023-03-17T08:18:35.281Z,3.20
2023-03-17T08:21:02.233Z,3.63
2023-03-17T08:23:28.985Z,3.17
2023-03-17T08:26:05.924Z,3.33
2023-03-17T08:28:32.885Z,3.60
2023-03-17T08:31:12.643Z,3.17
2023-03-17T08:33:42.168Z,3.63
2023-03-17T08:36:10.032Z,2.97
2023-03-17T08:38:38.528Z,3.30
2023-03-17T08:41:10.123Z,3.07
2023-03-17T08:43:38.185Z,3.10
2023-03-17T08:46:21.904Z,3.20
2023-03-17T08:48:52.229Z,2.77
2023-03-17T08:51:24.354Z,3.10
2023-03-17T08:53:51.924Z,3.07
2023-03-17T08:56:18.989Z,3.40
2023-03-17T08:58:51.389Z,3.00
2023-03-17T09:01:19.276Z,3.77
2023-03-17T09:03:46.760Z,2.90
2023-03-17T09:06:16.407Z,2.77
2023-03-17T09:08:50.831Z,3.45
2023-03-17T09:11:23.419Z,3.63
2023-03-17T09:13:52.434Z,3.40
2023-03-17T09:16:19.429Z,3.50
2023-03-17T09:18:46.604Z,3.27
2023-03-17T09:21:18.224Z,3.00
2023-03-17T09:23:45.080Z,3.40
2023-03-17T09:26:12.664Z,3.42
2023-03-17T09:28:42.595Z,3.10
2023-03-17T09:31:12.504Z,3.13
2023-03-17T09:33:40.687Z,3.13
2023-03-17T09:36:12.139Z,3.13
2023-03-17T09:38:39.464Z,3.00
2023-03-17T09:41:23.738Z,2.87
2023-03-17T09:44:06.673Z,2.90
2023-03-17T09:47:02.569Z,2.80
2023-03-17T09:49:38.869Z,2.73
2023-03-17T09:52:11.236Z,2.90
2023-03-17T09:54:39.055Z,2.40
2023-03-17T09:57:38.066Z,2.50
2023-03-17T10:00:20.737Z,2.30
2023-03-17T10:02:47.511Z,2.67
2023-03-17T10:05:17.180Z,2.10
2023-03-17T10:08:26.857Z,2.00
2023-03-17T10:11:19.571Z,2.10
2023-03-17T10:14:10.121Z,2.10
2023-03-17T10:16:50.869Z,1.87
2023-03-17T10:19:28.145Z,2.10
2023-03-17T10:22:04.188Z,2.13
2023-03-17T10:24:33.937Z,2.10
2023-03-17T10:27:06.560Z,1.93
2023-03-17T10:29:33.552Z,1.80
2023-03-17T10:32:08.313Z,2.13
2023-03-17T10:34:38.008Z,1.70
2023-03-17T10:37:15.037Z,1.80
2023-03-17T10:39:51.130Z,1.77
2023-03-17T10:42:23.769Z,1.87
2023-03-17T10:45:01.856Z,1.80
2023-03-17T10:47:34.579Z,1.53
2023-03-17T10:50:21.344Z,1.63
2023-03-17T10:52:57.867Z,1.60
2023-03-17T10:55:31.376Z,1.60
2023-03-17T10:58:07.872Z,1.40
2023-03-17T11:00:38.406Z,1.67
2023-03-17T11:03:16.810Z,1.70
2023-03-17T11:06:11.529Z,1.33
2023-03-17T11:08:53.692Z,1.47
2023-03-17T11:11:35.453Z,1.60
2023-03-17T11:14:16.305Z,1.63
2023-03-17T11:16:53.777Z,1.50
2023-03-17T11:19:31.757Z,1.70
2023-03-17T11:22:26.241Z,1.33
2023-03-17T11:25:05.051Z,1.60
2023-03-17T11:27:38.844Z,1.60
2023-03-17T11:30:47.348Z,1.70
2023-03-17T11:33:29.896Z,1.40
2023-03-17T11:36:24.766Z,1.60
2023-03-17T11:39:17.238Z,1.50
2023-03-17T11:41:56.109Z,1.20
2023-03-17T11:44:47.439Z,1.50
2023-03-17T11:47:20.449Z,1.50
2023-03-17T11:50:04.342Z,1.10
2023-03-17T11:52:38.706Z,0.90
2023-03-17T11:55:19.940Z,1.10
2023-03-17T11:57:48.645Z,1.30
2023-03-17T12:00:31.782Z,1.33
2023-03-17T12:03:04.474Z,1.10
2023-03-17T12:05:33.576Z,1.33
2023-03-17T12:08:12.540Z,1.23
2023-03-17T12:10:52.596Z,1.00
2023-03-17T12:13:39.853Z,0.90
2023-03-17T12:16:25.594Z,1.10
2023-03-17T12:19:02.209Z,0.80
2023-03-17T12:21:38.777Z,0.90
2023-03-17T12:24:23.922Z,1.13
2023-03-17T12:27:13.731Z,1.13
2023-03-17T12:29:42.926Z,0.90
2023-03-17T12:32:21.633Z,1.07
2023-03-17T12:35:26.413Z,0.93
2023-03-17T12:37:54.156Z,1.00
2023-03-17T12:40:47.385Z,0.70
2023-03-17T12:43:29.000Z,0.70
2023-03-17T12:46:11.575Z,0.60
2023-03-17T12:49:09.469Z,0.90
2023-03-17T12:51:58.447Z,0.77
2023-03-17T12:54:31.878Z,0.80
2023-03-17T12:57:38.275Z,0.70
2023-03-17T13:00:19.471Z,1.00
2023-03-17T13:02:53.745Z,1.13
2023-03-17T13:05:32.769Z,0.80
2023-03-17T13:08:02.650Z,0.60
2023-03-17T13:10:44.918Z,0.90
2023-03-17T13:13:11.570Z,1.00
2023-03-17T13:15:39.590Z,0.70
2023-03-17T13:18:12.264Z,0.80
2023-03-17T13:20:43.930Z,0.70
2023-03-17T13:23:10.681Z,0.90
2023-03-17T13:25:41.553Z,0.83
2023-03-17T13:28:14.857Z,0.93
2023-03-17T13:30:59.295Z,0.77
2023-03-17T13:33:34.609Z,0.85
2023-03-17T13:36:22.714Z,0.87
2023-03-17T13:39:20.528Z,0.70
2023-03-17T13:41:51.712Z,0.80
2023-03-17T13:44:36.718Z,0.53
2023-03-17T13:47:32.566Z,0.90
2023-03-17T13:50:12.557Z,0.70
2023-03-17T13:52:46.673Z,1.00
2023-03-17T13:55:35.031Z,0.70
2023-03-17T13:58:11.901Z,0.70
2023-03-17T14:00:41.643Z,0.50
2023-03-17T14:03:27.421Z,0.90
2023-03-17T14:05:55.239Z,0.70
2023-03-17T14:08:35.572Z,0.70
2023-03-17T14:11:06.691Z,0.67
2023-03-17T14:14:07.653Z,0.93
2023-03-17T14:16:44.086Z,0.90
2023-03-17T14:19:19.726Z,0.90
2023-03-17T14:21:46.613Z,0.70
2023-03-17T14:24:25.642Z,0.77
2023-03-17T14:26:55.354Z,0.80
2023-03-17T14:29:29.501Z,0.80
2023-03-17T14:32:11.824Z,0.67
2023-03-17T14:35:01.165Z,0.70
2023-03-17T14:37:28.378Z,0.80
2023-03-17T14:39:57.631Z,0.87
2023-03-17T14:42:33.857Z,0.80
2023-03-17T14:45:18.577Z,0.80
2023-03-17T14:47:45.464Z,1.07
2023-03-17T14:50:30.823Z,0.70
2023-03-17T14:53:01.449Z,1.00
2023-03-17T14:55:43.103Z,1.10
2023-03-17T14:58:30.451Z,0.80
2023-03-17T15:01:14.701Z,0.90
2023-03-17T15:03:58.389Z,1.20
2023-03-17T15:06:26.765Z,0.87
2023-03-17T15:08:54.344Z,0.83
2023-03-17T15:11:24.862Z,1.10
2023-03-17T15:14:03.518Z,1.00
2023-03-17T15:16:37.255Z,0.90
2023-03-17T15:19:22.645Z,0.90
2023-03-17T15:21:52.054Z,1.10
2023-03-17T15:24:31.706Z,1.00
2023-03-17T15:27:03.020Z,0.83
2023-03-17T15:29:30.080Z,1.00
2023-03-17T15:32:10.798Z,1.10
2023-03-17T15:34:37.949Z,0.95
2023-03-17T15:37:12.861Z,0.80
2023-03-17T15:39:39.499Z,1.20
2023-03-17T15:42:06.590Z,1.27
2023-03-17T15:44:33.441Z,1.37
2023-03-17T15:47:00.262Z,1.23
2023-03-17T15:49:27.125Z,1.30
2023-03-17T15:51:55.956Z,1.47
2023-03-17T15:54:22.592Z,1.40
2023-03-17T15:56:49.317Z,1.50
2023-03-17T15:59:16.161Z,1.37
2023-03-17T16:01:42.946Z,1.50
2023-03-17T16:04:10.692Z,1.58
2023-03-17T16:06:39.925Z,1.60
2023-03-17T16:09:16.601Z,1.50
2023-03-17T16:11:43.665Z,1.60
2023-03-17T16:14:13.744Z,1.80
2023-03-17T16:16:45.789Z,1.20
2023-03-17T16:19:22.816Z,1.70
2023-03-17T16:21:49.515Z,1.77
2023-03-17T16:24:24.465Z,1.40
2023-03-17T16:26:51.661Z,1.50
2023-03-17T16:29:20.394Z,1.57
2023-03-17T16:31:50.880Z,1.50
2023-03-17T16:34:20.833Z,1.65
2023-03-17T16:36:48.501Z,1.73
2023-03-17T16:39:22.818Z,1.87
2023-03-17T16:41:50.623Z,1.60
2023-03-17T16:44:20.379Z,1.60
2023-03-17T16:46:48.867Z,1.50
2023-03-17T16:49:20.367Z,1.50
2023-03-17T16:51:48.762Z,1.73
2023-03-17T16:54:16.164Z,1.80
2023-03-17T16:56:42.978Z,1.47
2023-03-17T16:59:21.569Z,1.53
2023-03-17T17:01:50.466Z,1.50
2023-03-17T17:04:17.233Z,1.40
2023-03-17T17:06:43.957Z,1.37
2023-03-17T17:09:10.667Z,1.40
2023-03-17T17:11:39.717Z,1.33
2023-03-17T17:14:06.757Z,1.37
2023-03-17T17:16:36.358Z,1.50
2023-03-17T17:19:04.260Z,1.20
2023-03-17T17:21:31.937Z,1.10
2023-03-17T17:23:58.690Z,1.47
2023-03-17T17:26:27.812Z,1.20
2023-03-17T17:28:54.506Z,1.00
2023-03-17T17:31:25.947Z,1.40
2023-03-17T17:33:55.165Z,1.20
2023-03-17T17:36:22.093Z,1.00
2023-03-17T17:38:48.850Z,1.07
2023-03-17T17:41:17.001Z,1.27
2023-03-17T17:43:44.007Z,1.20
2023-03-17T17:46:14.677Z,1.47
2023-03-17T17:48:45.976Z,1.20
2023-03-17T17:51:13.147Z,1.13
2023-03-17T17:53:40.320Z,1.00
2023-03-17T17:56:07.473Z,1.00
2023-03-17T17:58:34.206Z,1.30
2023-03-17T18:01:03.365Z,1.03
2023-03-17T18:03:32.061Z,1.10
2023-03-17T18:05:59.132Z,1.10
2023-03-17T18:08:28.148Z,1.23
2023-03-17T18:10:57.432Z,1.10
2023-03-17T18:13:26.824Z,1.40
2023-03-17T18:15:53.479Z,1.20
2023-03-17T18:18:22.576Z,1.10
2023-03-17T18:20:49.423Z,1.27
2023-03-17T18:23:20.108Z,0.97
2023-03-17T18:25:47.084Z,0.87
2023-03-17T18:28:13.775Z,1.10
2023-03-17T18:30:40.629Z,0.83
2023-03-17T18:33:17.482Z,1.20
2023-03-17T18:35:50.114Z,1.00
2023-03-17T18:38:17.045Z,1.03
2023-03-17T18:40:46.253Z,1.23
2023-03-17T18:43:13.005Z,1.30
2023-03-17T18:45:39.719Z,1.13
2023-03-17T18:48:06.803Z,1.40
2023-03-17T18:50:36.984Z,1.23
2023-03-17T18:53:03.955Z,1.17
2023-03-17T18:55:30.610Z,1.20
2023-03-17T18:57:59.792Z,1.00
2023-03-17T19:00:29.643Z,1.00
2023-03-17T19:02:56.645Z,1.10
2023-03-17T19:05:24.340Z,1.30
2023-03-17T19:07:51.171Z,1.30
2023-03-17T19:10:18.000Z,1.20
2023-03-17T19:12:46.324Z,1.10
2023-03-17T19:15:14.504Z,1.00
2023-03-17T19:17:41.836Z,1.17
2023-03-17T19:20:10.018Z,1.17
2023-03-17T19:22:37.152Z,1.03
2023-03-17T19:25:04.315Z,1.23
2023-03-17T19:27:31.127Z,1.07
2023-03-17T19:29:57.935Z,0.90
2023-03-17T19:32:29.341Z,1.30
2023-03-17T19:34:56.061Z,1.40
2023-03-17T19:37:22.798Z,1.23
2023-03-17T19:39:49.489Z,1.27
2023-03-17T19:42:18.626Z,1.30
2023-03-17T19:44:45.528Z,1.00
2023-03-17T19:47:12.634Z,1.10
2023-03-17T19:49:39.299Z,1.30
2023-03-17T19:52:07.531Z,1.10
2023-03-17T19:54:35.146Z,1.10
2023-03-17T19:57:04.474Z,1.07
2023-03-17T19:59:31.768Z,1.20
2023-03-17T20:01:58.610Z,1.27
2023-03-17T20:04:27.822Z,0.87
2023-03-17T20:06:57.892Z,1.10
2023-03-17T20:09:26.114Z,1.30
2023-03-17T20:11:56.509Z,1.10
2023-03-17T20:14:26.209Z,1.40
2023-03-17T20:16:53.652Z,1.43
2023-03-17T20:19:21.028Z,1.23
2023-03-17T20:21:50.363Z,1.20
2023-03-17T20:24:17.608Z,1.00
2023-03-17T20:26:49.817Z,1.30
2023-03-17T20:29:17.556Z,1.00
2023-03-17T20:31:44.613Z,1.03
2023-03-17T20:34:13.766Z,0.93
2023-03-17T20:36:42.361Z,0.90
2023-03-17T20:39:14.883Z,1.30
2023-03-17T20:41:41.620Z,1.10
2023-03-17T20:44:08.342Z,1.07
2023-03-17T20:46:35.293Z,1.20
2023-03-17T20:49:02.163Z,1.10
2023-03-17T20:51:28.925Z,1.37
2023-03-17T20:54:00.969Z,1.27
2023-03-17T20:56:34.054Z,1.30
2023-03-17T20:59:04.921Z,1.33
2023-03-17T21:01:37.150Z,1.20
2023-03-17T21:04:09.840Z,1.20
2023-03-17T21:06:38.515Z,1.30
2023-03-17T21:09:05.945Z,1.30
2023-03-17T21:11:33.066Z,1.20
2023-03-17T21:13:59.869Z,1.30
2023-03-17T21:16:30.917Z,1.40
2023-03-17T21:19:00.697Z,1.50
2023-03-17T21:21:30.582Z,1.30
2023-03-17T21:23:57.876Z,1.30
2023-03-17T21:26:25.407Z,1.30
2023-03-17T21:28:52.580Z,1.30
2023-03-17T21:31:19.425Z,1.40
2023-03-17T21:33:50.353Z,1.30
2023-03-17T21:36:17.627Z,1.20
2023-03-17T21:38:45.522Z,1.17
2023-03-17T21:41:39.386Z,1.30
2023-03-17T21:44:08.646Z,1.50
2023-03-17T21:46:35.544Z,1.43
2023-03-17T21:49:05.295Z,1.40
2023-03-17T21:51:32.733Z,1.40
2023-03-17T21:54:02.328Z,1.50
2023-03-17T21:56:29.617Z,1.53
2023-03-17T21:58:57.330Z,1.50
2023-03-17T22:01:24.580Z,1.30
2023-03-17T22:03:54.667Z,1.40
2023-03-17T22:06:21.781Z,1.40
2023-03-17T22:08:50.464Z,1.20
2023-03-17T22:11:20.904Z,1.20
2023-03-17T22:13:51.370Z,1.30
2023-03-17T22:16:21.603Z,1.50
2023-03-17T22:18:50.609Z,1.63
2023-03-17T22:21:21.308Z,1.33
2023-03-17T22:23:50.933Z,1.40
2023-03-17T22:26:19.881Z,1.50
2023-03-17T22:28:47.966Z,1.53
2023-03-17T22:31:21.599Z,1.77
2023-03-17T22:33:50.814Z,1.47
2023-03-17T22:36:17.956Z,1.48
2023-03-17T22:38:46.182Z,1.40
2023-03-17T22:41:23.551Z,1.43
2023-03-17T22:43:55.684Z,1.47
2023-03-17T22:46:22.563Z,1.40
2023-03-17T22:48:49.835Z,1.40
2023-03-17T22:51:20.754Z,1.50
2023-03-17T22:53:50.888Z,1.43
2023-03-17T22:56:20.654Z,1.70
2023-03-17T22:58:47.984Z,1.60
2023-03-17T23:01:22.259Z,1.40
2023-03-17T23:03:49.715Z,1.80
2023-03-17T23:06:19.522Z,1.53
2023-03-17T23:08:49.550Z,1.80
2023-03-17T23:11:23.088Z,1.70
2023-03-17T23:13:51.329Z,1.53
2023-03-17T23:16:18.874Z,1.43
2023-03-17T23:18:47.003Z,1.70
2023-03-17T23:21:26.325Z,1.47
2023-03-17T23:23:53.265Z,1.50
2023-03-17T23:26:20.002Z,1.60
2023-03-17T23:28:47.567Z,1.70
2023-03-17T23:31:19.124Z,1.70
2023-03-17T23:33:52.640Z,1.80
2023-03-17T23:36:21.800Z,1.70
2023-03-17T23:38:52.220Z,1.83
2023-03-17T23:41:19.128Z,1.60
2023-03-17T23:43:46.717Z,1.67
2023-03-17T23:46:16.176Z,1.77
2023-03-17T23:48:43.242Z,1.93
2023-03-17T23:51:15.093Z,1.70
2023-03-17T23:53:43.808Z,1.80
2023-03-17T23:56:13.096Z,2.00
2023-03-17T23:58:42.430Z,1.87
